sensor_id;sensor_type;location;lat;lon;timestamp;P1;durP1;ratioP1;P2;durP2;ratioP2
77170;SDS011;66144;50.020;14.422;2023-05-20T00:01:57;21.85;;;12.32;;
77170;SDS011;66144;50.020;14.422;2023-05-20T00:04:22;21.00;;;12.88;;
77170;SDS011;66144;50.020;14.422;2023-05-20T00:06:48;22.20;;;13.43;;
77170;SDS011;66144;50.020;14.422;2023-05-20T00:09:13;21.85;;;13.48;;
77170;SDS011;66144;50.020;14.422;2023-05-20T00:11:39;22.85;;;13.63;;
77170;SDS011;66144;50.020;14.422;2023-05-20T00:14:05;25.80;;;13.95;;
77170;SDS011;66144;50.020;14.422;2023-05-20T00:16:30;18.90;;;12.70;;
77170;SDS011;66144;50.020;14.422;2023-05-20T00:18:55;21.83;;;13.32;;
77170;SDS011;66144;50.020;14.422;2023-05-20T00:21:21;24.38;;;13.70;;
77170;SDS011;66144;50.020;14.422;2023-05-20T00:23:46;21.08;;;12.50;;
77170;SDS011;66144;50.020;14.422;2023-05-20T00:26:12;19.88;;;12.93;;
77170;SDS011;66144;50.020;14.422;2023-05-20T00:28:37;21.10;;;12.45;;
77170;SDS011;66144;50.020;14.422;2023-05-20T00:31:03;21.15;;;13.20;;
77170;SDS011;66144;50.020;14.422;2023-05-20T00:33:28;22.80;;;12.98;;
77170;SDS011;66144;50.020;14.422;2023-05-20T00:35:54;19.58;;;12.20;;
77170;SDS011;66144;50.020;14.422;2023-05-20T00:38:19;20.15;;;11.80;;
77170;SDS011;66144;50.020;14.422;2023-05-20T00:40:45;20.92;;;12.93;;
77170;SDS011;66144;50.020;14.422;2023-05-20T00:43:10;22.00;;;13.02;;
77170;SDS011;66144;50.020;14.422;2023-05-20T00:45:36;22.63;;;13.57;;
77170;SDS011;66144;50.020;14.422;2023-05-20T00:48:02;22.80;;;13.93;;
77170;SDS011;66144;50.020;14.422;2023-05-20T00:50:29;24.77;;;13.75;;
77170;SDS011;66144;50.020;14.422;2023-05-20T00:52:55;21.00;;;12.85;;
77170;SDS011;66144;50.020;14.422;2023-05-20T00:55:21;20.60;;;12.38;;
77170;SDS011;66144;50.020;14.422;2023-05-20T00:57:47;23.20;;;13.10;;
77170;SDS011;66144;50.020;14.422;2023-05-20T01:00:13;19.33;;;13.00;;
77170;SDS011;66144;50.020;14.422;2023-05-20T01:02:39;21.33;;;12.75;;
77170;SDS011;66144;50.020;14.422;2023-05-20T01:05:04;22.30;;;12.75;;
77170;SDS011;66144;50.020;14.422;2023-05-20T01:07:30;21.98;;;12.90;;
77170;SDS011;66144;50.020;14.422;2023-05-20T01:09:56;21.88;;;12.98;;
77170;SDS011;66144;50.020;14.422;2023-05-20T01:15:20;22.85;;;14.63;;
77170;SDS011;66144;50.020;14.422;2023-05-20T01:17:50;21.88;;;13.00;;
77170;SDS011;66144;50.020;14.422;2023-05-20T01:20:21;22.67;;;12.77;;
77170;SDS011;66144;50.020;14.422;2023-05-20T01:22:48;22.55;;;14.18;;
77170;SDS011;66144;50.020;14.422;2023-05-20T01:25:17;21.88;;;13.63;;
77170;SDS011;66144;50.020;14.422;2023-05-20T01:27:42;22.83;;;13.82;;
77170;SDS011;66144;50.020;14.422;2023-05-20T01:30:08;21.95;;;12.15;;
77170;SDS011;66144;50.020;14.422;2023-05-20T01:32:38;21.17;;;12.77;;
77170;SDS011;66144;50.020;14.422;2023-05-20T01:35:07;20.73;;;12.48;;
77170;SDS011;66144;50.020;14.422;2023-05-20T01:37:34;21.50;;;12.80;;
77170;SDS011;66144;50.020;14.422;2023-05-20T01:40:02;22.45;;;12.82;;
77170;SDS011;66144;50.020;14.422;2023-05-20T01:42:29;20.88;;;12.50;;
77170;SDS011;66144;50.020;14.422;2023-05-20T01:44:54;25.52;;;13.75;;
77170;SDS011;66144;50.020;14.422;2023-05-20T01:47:20;22.85;;;13.27;;
77170;SDS011;66144;50.020;14.422;2023-05-20T01:49:45;27.20;;;14.70;;
77170;SDS011;66144;50.020;14.422;2023-05-20T01:52:11;25.30;;;13.85;;
77170;SDS011;66144;50.020;14.422;2023-05-20T01:54:37;21.00;;;13.10;;
77170;SDS011;66144;50.020;14.422;2023-05-20T01:57:02;20.73;;;12.48;;
77170;SDS011;66144;50.020;14.422;2023-05-20T01:59:28;23.45;;;13.48;;
77170;SDS011;66144;50.020;14.422;2023-05-20T02:01:53;21.90;;;11.50;;
77170;SDS011;66144;50.020;14.422;2023-05-20T02:04:19;23.35;;;13.52;;
77170;SDS011;66144;50.020;14.422;2023-05-20T02:06:46;24.90;;;12.82;;
77170;SDS011;66144;50.020;14.422;2023-05-20T02:09:12;21.13;;;12.52;;
77170;SDS011;66144;50.020;14.422;2023-05-20T02:11:38;21.65;;;13.55;;
77170;SDS011;66144;50.020;14.422;2023-05-20T02:14:03;23.40;;;13.10;;
77170;SDS011;66144;50.020;14.422;2023-05-20T02:16:28;22.67;;;13.15;;
77170;SDS011;66144;50.020;14.422;2023-05-20T02:18:54;21.10;;;12.38;;
77170;SDS011;66144;50.020;14.422;2023-05-20T02:21:19;20.17;;;11.88;;
77170;SDS011;66144;50.020;14.422;2023-05-20T02:23:45;20.27;;;12.90;;
77170;SDS011;66144;50.020;14.422;2023-05-20T02:26:10;25.23;;;14.20;;
77170;SDS011;66144;50.020;14.422;2023-05-20T02:28:36;23.17;;;13.63;;
77170;SDS011;66144;50.020;14.422;2023-05-20T02:31:04;20.95;;;13.25;;
77170;SDS011;66144;50.020;14.422;2023-05-20T02:33:30;21.30;;;13.20;;
77170;SDS011;66144;50.020;14.422;2023-05-20T02:35:57;22.92;;;13.20;;
77170;SDS011;66144;50.020;14.422;2023-05-20T02:38:23;25.67;;;14.20;;
77170;SDS011;66144;50.020;14.422;2023-05-20T02:40:48;23.58;;;14.23;;
77170;SDS011;66144;50.020;14.422;2023-05-20T02:43:14;22.67;;;12.60;;
77170;SDS011;66144;50.020;14.422;2023-05-20T02:45:39;21.50;;;13.05;;
77170;SDS011;66144;50.020;14.422;2023-05-20T02:48:05;24.75;;;14.57;;
77170;SDS011;66144;50.020;14.422;2023-05-20T02:50:30;23.33;;;13.63;;
77170;SDS011;66144;50.020;14.422;2023-05-20T02:52:55;24.55;;;12.85;;
77170;SDS011;66144;50.020;14.422;2023-05-20T02:55:21;21.92;;;12.85;;
77170;SDS011;66144;50.020;14.422;2023-05-20T02:57:47;22.92;;;13.50;;
77170;SDS011;66144;50.020;14.422;2023-05-20T03:00:13;25.90;;;15.52;;
77170;SDS011;66144;50.020;14.422;2023-05-20T03:02:38;20.23;;;11.90;;
77170;SDS011;66144;50.020;14.422;2023-05-20T03:05:04;26.13;;;14.18;;
77170;SDS011;66144;50.020;14.422;2023-05-20T03:07:30;23.65;;;12.95;;
77170;SDS011;66144;50.020;14.422;2023-05-20T03:09:58;23.42;;;12.90;;
77170;SDS011;66144;50.020;14.422;2023-05-20T03:12:23;19.52;;;11.90;;
77170;SDS011;66144;50.020;14.422;2023-05-20T03:14:50;24.60;;;13.55;;
77170;SDS011;66144;50.020;14.422;2023-05-20T03:17:19;24.85;;;13.88;;
77170;SDS011;66144;50.020;14.422;2023-05-20T03:19:45;23.48;;;12.90;;
77170;SDS011;66144;50.020;14.422;2023-05-20T03:22:10;24.13;;;12.68;;
77170;SDS011;66144;50.020;14.422;2023-05-20T03:24:36;23.20;;;13.52;;
77170;SDS011;66144;50.020;14.422;2023-05-20T03:27:01;23.38;;;13.68;;
77170;SDS011;66144;50.020;14.422;2023-05-20T03:29:27;23.83;;;13.88;;
77170;SDS011;66144;50.020;14.422;2023-05-20T03:31:52;23.42;;;13.02;;
77170;SDS011;66144;50.020;14.422;2023-05-20T03:34:17;22.90;;;13.77;;
77170;SDS011;66144;50.020;14.422;2023-05-20T03:36:42;21.75;;;12.05;;
77170;SDS011;66144;50.020;14.422;2023-05-20T03:39:08;26.23;;;13.77;;
77170;SDS011;66144;50.020;14.422;2023-05-20T03:41:33;22.65;;;13.35;;
77170;SDS011;66144;50.020;14.422;2023-05-20T03:43:59;20.65;;;12.43;;
77170;SDS011;66144;50.020;14.422;2023-05-20T03:46:25;21.58;;;12.45;;
77170;SDS011;66144;50.020;14.422;2023-05-20T03:48:50;25.88;;;13.80;;
77170;SDS011;66144;50.020;14.422;2023-05-20T03:51:15;23.35;;;12.68;;
77170;SDS011;66144;50.020;14.422;2023-05-20T03:53:40;22.98;;;13.52;;
77170;SDS011;66144;50.020;14.422;2023-05-20T03:56:06;28.02;;;12.95;;
77170;SDS011;66144;50.020;14.422;2023-05-20T03:58:31;23.27;;;13.00;;
77170;SDS011;66144;50.020;14.422;2023-05-20T04:00:57;24.15;;;13.95;;
77170;SDS011;66144;50.020;14.422;2023-05-20T04:03:22;23.08;;;14.32;;
77170;SDS011;66144;50.020;14.422;2023-05-20T04:05:48;23.88;;;14.18;;
77170;SDS011;66144;50.020;14.422;2023-05-20T04:08:14;24.38;;;15.10;;
77170;SDS011;66144;50.020;14.422;2023-05-20T04:10:42;24.08;;;14.07;;
77170;SDS011;66144;50.020;14.422;2023-05-20T04:13:09;23.17;;;13.35;;
77170;SDS011;66144;50.020;14.422;2023-05-20T04:15:35;23.33;;;14.13;;
77170;SDS011;66144;50.020;14.422;2023-05-20T04:18:02;23.65;;;13.27;;
77170;SDS011;66144;50.020;14.422;2023-05-20T04:20:29;24.90;;;14.40;;
77170;SDS011;66144;50.020;14.422;2023-05-20T04:22:55;24.30;;;15.02;;
77170;SDS011;66144;50.020;14.422;2023-05-20T04:25:20;26.08;;;15.13;;
77170;SDS011;66144;50.020;14.422;2023-05-20T04:27:46;24.83;;;13.93;;
77170;SDS011;66144;50.020;14.422;2023-05-20T04:30:12;25.90;;;14.43;;
77170;SDS011;66144;50.020;14.422;2023-05-20T04:32:38;23.65;;;14.75;;
77170;SDS011;66144;50.020;14.422;2023-05-20T04:35:03;24.58;;;13.45;;
77170;SDS011;66144;50.020;14.422;2023-05-20T04:37:33;22.02;;;13.63;;
77170;SDS011;66144;50.020;14.422;2023-05-20T04:39:59;22.25;;;12.90;;
77170;SDS011;66144;50.020;14.422;2023-05-20T04:42:27;24.45;;;14.25;;
77170;SDS011;66144;50.020;14.422;2023-05-20T04:44:53;24.42;;;13.45;;
77170;SDS011;66144;50.020;14.422;2023-05-20T04:47:19;23.70;;;12.45;;
77170;SDS011;66144;50.020;14.422;2023-05-20T04:49:44;21.48;;;13.20;;
77170;SDS011;66144;50.020;14.422;2023-05-20T04:52:09;22.33;;;13.93;;
77170;SDS011;66144;50.020;14.422;2023-05-20T04:54:35;21.73;;;13.55;;
77170;SDS011;66144;50.020;14.422;2023-05-20T04:57:00;23.20;;;12.85;;
77170;SDS011;66144;50.020;14.422;2023-05-20T04:59:26;23.55;;;13.45;;
77170;SDS011;66144;50.020;14.422;2023-05-20T05:01:52;19.58;;;12.70;;
77170;SDS011;66144;50.020;14.422;2023-05-20T05:04:17;24.45;;;14.18;;
77170;SDS011;66144;50.020;14.422;2023-05-20T05:06:42;23.65;;;13.35;;
77170;SDS011;66144;50.020;14.422;2023-05-20T05:09:08;22.90;;;13.70;;
77170;SDS011;66144;50.020;14.422;2023-05-20T05:11:33;20.35;;;13.20;;
77170;SDS011;66144;50.020;14.422;2023-05-20T05:13:59;20.40;;;12.50;;
77170;SDS011;66144;50.020;14.422;2023-05-20T05:16:25;19.80;;;13.05;;
77170;SDS011;66144;50.020;14.422;2023-05-20T05:18:50;20.05;;;12.23;;
77170;SDS011;66144;50.020;14.422;2023-05-20T05:21:15;21.08;;;12.85;;
77170;SDS011;66144;50.020;14.422;2023-05-20T05:23:41;20.92;;;13.27;;
77170;SDS011;66144;50.020;14.422;2023-05-20T05:26:06;24.30;;;12.90;;
77170;SDS011;66144;50.020;14.422;2023-05-20T05:28:32;22.00;;;13.07;;
77170;SDS011;66144;50.020;14.422;2023-05-20T05:30:57;19.52;;;12.75;;
77170;SDS011;66144;50.020;14.422;2023-05-20T05:33:23;21.98;;;13.77;;
77170;SDS011;66144;50.020;14.422;2023-05-20T05:35:48;20.25;;;13.50;;
77170;SDS011;66144;50.020;14.422;2023-05-20T05:38:14;22.77;;;12.70;;
77170;SDS011;66144;50.020;14.422;2023-05-20T05:40:40;19.15;;;12.82;;
77170;SDS011;66144;50.020;14.422;2023-05-20T05:43:05;19.65;;;12.27;;
77170;SDS011;66144;50.020;14.422;2023-05-20T05:45:31;20.20;;;13.73;;
77170;SDS011;66144;50.020;14.422;2023-05-20T05:47:56;19.23;;;12.35;;
77170;SDS011;66144;50.020;14.422;2023-05-20T05:50:22;21.48;;;12.98;;
77170;SDS011;66144;50.020;14.422;2023-05-20T05:52:47;20.35;;;13.00;;
77170;SDS011;66144;50.020;14.422;2023-05-20T05:55:12;19.45;;;12.02;;
77170;SDS011;66144;50.020;14.422;2023-05-20T05:57:38;20.40;;;12.10;;
77170;SDS011;66144;50.020;14.422;2023-05-20T06:00:03;19.40;;;12.68;;
77170;SDS011;66144;50.020;14.422;2023-05-20T06:02:29;18.35;;;11.57;;
77170;SDS011;66144;50.020;14.422;2023-05-20T06:04:55;18.58;;;12.63;;
77170;SDS011;66144;50.020;14.422;2023-05-20T06:07:20;21.33;;;12.82;;
77170;SDS011;66144;50.020;14.422;2023-05-20T06:09:47;19.60;;;12.15;;
77170;SDS011;66144;50.020;14.422;2023-05-20T06:12:12;16.27;;;11.48;;
77170;SDS011;66144;50.020;14.422;2023-05-20T06:14:37;18.00;;;12.02;;
77170;SDS011;66144;50.020;14.422;2023-05-20T06:17:03;20.25;;;13.80;;
77170;SDS011;66144;50.020;14.422;2023-05-20T06:19:29;19.38;;;13.40;;
77170;SDS011;66144;50.020;14.422;2023-05-20T06:21:55;17.23;;;12.32;;
77170;SDS011;66144;50.020;14.422;2023-05-20T06:24:22;22.52;;;11.90;;
77170;SDS011;66144;50.020;14.422;2023-05-20T06:26:47;15.00;;;11.10;;
77170;SDS011;66144;50.020;14.422;2023-05-20T06:29:14;18.33;;;12.30;;
77170;SDS011;66144;50.020;14.422;2023-05-20T06:31:39;17.35;;;12.15;;
77170;SDS011;66144;50.020;14.422;2023-05-20T06:34:05;16.23;;;12.02;;
77170;SDS011;66144;50.020;14.422;2023-05-20T06:36:30;17.15;;;11.88;;
77170;SDS011;66144;50.020;14.422;2023-05-20T06:38:56;19.27;;;12.15;;
77170;SDS011;66144;50.020;14.422;2023-05-20T06:41:21;17.30;;;12.57;;
77170;SDS011;66144;50.020;14.422;2023-05-20T06:43:46;18.20;;;12.23;;
77170;SDS011;66144;50.020;14.422;2023-05-20T06:46:12;19.80;;;13.05;;
77170;SDS011;66144;50.020;14.422;2023-05-20T06:48:37;16.92;;;12.10;;
77170;SDS011;66144;50.020;14.422;2023-05-20T06:51:05;18.17;;;13.60;;
77170;SDS011;66144;50.020;14.422;2023-05-20T06:53:33;17.55;;;12.50;;
77170;SDS011;66144;50.020;14.422;2023-05-20T06:55:59;18.75;;;13.15;;
77170;SDS011;66144;50.020;14.422;2023-05-20T06:58:24;19.92;;;13.40;;
77170;SDS011;66144;50.020;14.422;2023-05-20T07:00:49;18.75;;;12.90;;
77170;SDS011;66144;50.020;14.422;2023-05-20T07:03:15;21.60;;;14.35;;
77170;SDS011;66144;50.020;14.422;2023-05-20T07:05:40;20.58;;;12.75;;
77170;SDS011;66144;50.020;14.422;2023-05-20T07:08:06;21.27;;;13.90;;
77170;SDS011;66144;50.020;14.422;2023-05-20T07:10:32;20.98;;;13.23;;
77170;SDS011;66144;50.020;14.422;2023-05-20T07:12:57;21.90;;;13.30;;
77170;SDS011;66144;50.020;14.422;2023-05-20T07:15:22;17.17;;;13.77;;
77170;SDS011;66144;50.020;14.422;2023-05-20T07:17:48;18.30;;;12.98;;
77170;SDS011;66144;50.020;14.422;2023-05-20T07:20:13;19.95;;;13.18;;
77170;SDS011;66144;50.020;14.422;2023-05-20T07:22:38;16.67;;;12.35;;
77170;SDS011;66144;50.020;14.422;2023-05-20T07:25:04;18.00;;;12.80;;
77170;SDS011;66144;50.020;14.422;2023-05-20T07:27:30;18.17;;;13.25;;
77170;SDS011;66144;50.020;14.422;2023-05-20T07:29:55;19.15;;;13.50;;
77170;SDS011;66144;50.020;14.422;2023-05-20T07:32:21;19.52;;;13.23;;
77170;SDS011;66144;50.020;14.422;2023-05-20T07:34:46;17.95;;;12.95;;
77170;SDS011;66144;50.020;14.422;2023-05-20T07:37:11;19.85;;;14.05;;
77170;SDS011;66144;50.020;14.422;2023-05-20T07:39:37;21.23;;;13.98;;
77170;SDS011;66144;50.020;14.422;2023-05-20T07:42:02;18.88;;;13.43;;
77170;SDS011;66144;50.020;14.422;2023-05-20T07:44:28;18.08;;;13.05;;
77170;SDS011;66144;50.020;14.422;2023-05-20T07:46:54;18.08;;;13.60;;
77170;SDS011;66144;50.020;14.422;2023-05-20T07:49:19;19.17;;;13.80;;
77170;SDS011;66144;50.020;14.422;2023-05-20T07:51:45;16.77;;;13.18;;
77170;SDS011;66144;50.020;14.422;2023-05-20T07:54:10;17.80;;;13.00;;
77170;SDS011;66144;50.020;14.422;2023-05-20T07:56:36;17.77;;;13.40;;
77170;SDS011;66144;50.020;14.422;2023-05-20T07:59:01;18.27;;;13.20;;
77170;SDS011;66144;50.020;14.422;2023-05-20T08:01:27;15.20;;;12.25;;
77170;SDS011;66144;50.020;14.422;2023-05-20T08:03:52;16.80;;;13.07;;
77170;SDS011;66144;50.020;14.422;2023-05-20T08:06:18;15.95;;;12.88;;
77170;SDS011;66144;50.020;14.422;2023-05-20T08:08:53;15.50;;;12.57;;
77170;SDS011;66144;50.020;14.422;2023-05-20T08:11:19;16.73;;;12.70;;
77170;SDS011;66144;50.020;14.422;2023-05-20T08:13:45;16.50;;;13.38;;
77170;SDS011;66144;50.020;14.422;2023-05-20T08:16:11;19.08;;;12.95;;
77170;SDS011;66144;50.020;14.422;2023-05-20T08:18:37;16.20;;;12.75;;
77170;SDS011;66144;50.020;14.422;2023-05-20T08:21:03;22.10;;;13.77;;
77170;SDS011;66144;50.020;14.422;2023-05-20T08:23:31;16.70;;;13.73;;
77170;SDS011;66144;50.020;14.422;2023-05-20T08:25:57;18.05;;;13.70;;
77170;SDS011;66144;50.020;14.422;2023-05-20T08:28:26;21.15;;;14.65;;
77170;SDS011;66144;50.020;14.422;2023-05-20T08:30:51;16.08;;;12.32;;
77170;SDS011;66144;50.020;14.422;2023-05-20T08:33:17;17.35;;;13.05;;
77170;SDS011;66144;50.020;14.422;2023-05-20T08:35:43;16.90;;;12.95;;
77170;SDS011;66144;50.020;14.422;2023-05-20T08:38:09;17.27;;;13.68;;
77170;SDS011;66144;50.020;14.422;2023-05-20T08:40:34;18.63;;;13.68;;
77170;SDS011;66144;50.020;14.422;2023-05-20T08:43:00;17.13;;;13.18;;
77170;SDS011;66144;50.020;14.422;2023-05-20T08:45:32;16.27;;;12.85;;
77170;SDS011;66144;50.020;14.422;2023-05-20T08:47:59;17.42;;;13.32;;
77170;SDS011;66144;50.020;14.422;2023-05-20T08:50:25;18.30;;;13.10;;
77170;SDS011;66144;50.020;14.422;2023-05-20T08:52:50;17.30;;;12.90;;
77170;SDS011;66144;50.020;14.422;2023-05-20T08:55:17;15.70;;;12.10;;
77170;SDS011;66144;50.020;14.422;2023-05-20T08:58:03;17.58;;;12.80;;
77170;SDS011;66144;50.020;14.422;2023-05-20T09:00:29;18.30;;;13.68;;
77170;SDS011;66144;50.020;14.422;2023-05-20T09:02:56;18.80;;;12.68;;
77170;SDS011;66144;50.020;14.422;2023-05-20T09:05:22;16.40;;;12.63;;
77170;SDS011;66144;50.020;14.422;2023-05-20T09:07:48;20.58;;;12.82;;
77170;SDS011;66144;50.020;14.422;2023-05-20T09:10:13;17.45;;;12.75;;
77170;SDS011;66144;50.020;14.422;2023-05-20T09:12:39;17.20;;;12.23;;
77170;SDS011;66144;50.020;14.422;2023-05-20T09:15:05;18.05;;;12.85;;
77170;SDS011;66144;50.020;14.422;2023-05-20T09:17:31;18.33;;;13.02;;
77170;SDS011;66144;50.020;14.422;2023-05-20T09:20:00;15.40;;;12.10;;
77170;SDS011;66144;50.020;14.422;2023-05-20T09:22:26;16.58;;;12.38;;
77170;SDS011;66144;50.020;14.422;2023-05-20T09:24:53;15.13;;;11.73;;
77170;SDS011;66144;50.020;14.422;2023-05-20T09:27:19;16.10;;;12.20;;
77170;SDS011;66144;50.020;14.422;2023-05-20T09:29:48;15.90;;;12.27;;
77170;SDS011;66144;50.020;14.422;2023-05-20T09:32:14;16.40;;;11.65;;
77170;SDS011;66144;50.020;14.422;2023-05-20T09:34:40;16.85;;;11.52;;
77170;SDS011;66144;50.020;14.422;2023-05-20T09:37:07;16.60;;;11.82;;
77170;SDS011;66144;50.020;14.422;2023-05-20T09:39:38;17.02;;;11.23;;
77170;SDS011;66144;50.020;14.422;2023-05-20T09:42:20;14.80;;;10.77;;
77170;SDS011;66144;50.020;14.422;2023-05-20T09:44:50;16.67;;;11.43;;
77170;SDS011;66144;50.020;14.422;2023-05-20T09:47:18;13.57;;;10.98;;
77170;SDS011;66144;50.020;14.422;2023-05-20T09:49:44;15.93;;;11.77;;
77170;SDS011;66144;50.020;14.422;2023-05-20T09:52:11;18.77;;;10.75;;
77170;SDS011;66144;50.020;14.422;2023-05-20T09:54:39;16.05;;;11.75;;
77170;SDS011;66144;50.020;14.422;2023-05-20T09:57:06;14.73;;;11.30;;
77170;SDS011;66144;50.020;14.422;2023-05-20T09:59:32;14.25;;;10.75;;
77170;SDS011;66144;50.020;14.422;2023-05-20T10:01:59;15.60;;;11.35;;
77170;SDS011;66144;50.020;14.422;2023-05-20T10:04:25;13.60;;;10.13;;
77170;SDS011;66144;50.020;14.422;2023-05-20T10:07:01;15.77;;;11.07;;
77170;SDS011;66144;50.020;14.422;2023-05-20T10:20:46;14.55;;;9.88;;
77170;SDS011;66144;50.020;14.422;2023-05-20T10:23:19;12.18;;;10.73;;
77170;SDS011;66144;50.020;14.422;2023-05-20T10:25:49;12.02;;;9.68;;
77170;SDS011;66144;50.020;14.422;2023-05-20T10:28:16;14.50;;;10.38;;
77170;SDS011;66144;50.020;14.422;2023-05-20T10:30:53;12.80;;;9.25;;
77170;SDS011;66144;50.020;14.422;2023-05-20T10:33:18;13.30;;;10.48;;
77170;SDS011;66144;50.020;14.422;2023-05-20T10:35:49;13.00;;;9.50;;
77170;SDS011;66144;50.020;14.422;2023-05-20T10:38:15;12.57;;;10.55;;
77170;SDS011;66144;50.020;14.422;2023-05-20T10:40:41;12.90;;;9.85;;
77170;SDS011;66144;50.020;14.422;2023-05-20T10:43:10;10.13;;;8.23;;
77170;SDS011;66144;50.020;14.422;2023-05-20T10:45:47;11.82;;;8.98;;
77170;SDS011;66144;50.020;14.422;2023-05-20T10:48:26;11.43;;;9.25;;
77170;SDS011;66144;50.020;14.422;2023-05-20T10:50:56;18.20;;;9.75;;
77170;SDS011;66144;50.020;14.422;2023-05-20T10:53:23;12.98;;;9.50;;
77170;SDS011;66144;50.020;14.422;2023-05-20T10:55:50;10.45;;;9.23;;
77170;SDS011;66144;50.020;14.422;2023-05-20T10:58:17;12.30;;;8.88;;
77170;SDS011;66144;50.020;14.422;2023-05-20T11:00:43;14.05;;;10.40;;
77170;SDS011;66144;50.020;14.422;2023-05-20T11:03:09;13.90;;;9.77;;
77170;SDS011;66144;50.020;14.422;2023-05-20T11:05:38;11.07;;;9.70;;
77170;SDS011;66144;50.020;14.422;2023-05-20T11:08:04;13.43;;;10.00;;
77170;SDS011;66144;50.020;14.422;2023-05-20T11:10:32;13.00;;;9.18;;
77170;SDS011;66144;50.020;14.422;2023-05-20T11:12:59;15.57;;;10.15;;
77170;SDS011;66144;50.020;14.422;2023-05-20T11:15:25;14.43;;;10.60;;
77170;SDS011;66144;50.020;14.422;2023-05-20T11:17:54;13.90;;;11.25;;
77170;SDS011;66144;50.020;14.422;2023-05-20T11:20:23;12.60;;;10.70;;
77170;SDS011;66144;50.020;14.422;2023-05-20T11:22:51;11.77;;;9.63;;
77170;SDS011;66144;50.020;14.422;2023-05-20T11:25:17;13.65;;;10.35;;
77170;SDS011;66144;50.020;14.422;2023-05-20T11:27:43;13.77;;;9.60;;
77170;SDS011;66144;50.020;14.422;2023-05-20T11:30:09;14.68;;;10.65;;
77170;SDS011;66144;50.020;14.422;2023-05-20T11:32:37;11.55;;;9.77;;
77170;SDS011;66144;50.020;14.422;2023-05-20T11:35:02;14.93;;;9.77;;
77170;SDS011;66144;50.020;14.422;2023-05-20T11:37:28;11.50;;;9.30;;
77170;SDS011;66144;50.020;14.422;2023-05-20T11:40:06;13.77;;;10.23;;
77170;SDS011;66144;50.020;14.422;2023-05-20T11:42:33;11.85;;;10.05;;
77170;SDS011;66144;50.020;14.422;2023-05-20T11:44:59;12.77;;;10.30;;
77170;SDS011;66144;50.020;14.422;2023-05-20T11:47:26;13.23;;;9.82;;
77170;SDS011;66144;50.020;14.422;2023-05-20T11:49:52;15.23;;;10.50;;
77170;SDS011;66144;50.020;14.422;2023-05-20T11:52:17;12.25;;;9.20;;
77170;SDS011;66144;50.020;14.422;2023-05-20T11:54:43;10.32;;;8.57;;
77170;SDS011;66144;50.020;14.422;2023-05-20T11:57:10;12.02;;;9.52;;
77170;SDS011;66144;50.020;14.422;2023-05-20T11:59:35;12.25;;;8.38;;
77170;SDS011;66144;50.020;14.422;2023-05-20T12:02:01;10.10;;;8.38;;
77170;SDS011;66144;50.020;14.422;2023-05-20T12:04:26;10.93;;;8.18;;
77170;SDS011;66144;50.020;14.422;2023-05-20T12:06:52;10.95;;;7.72;;
77170;SDS011;66144;50.020;14.422;2023-05-20T12:09:17;10.35;;;7.93;;
77170;SDS011;66144;50.020;14.422;2023-05-20T12:11:43;9.00;;;7.85;;
77170;SDS011;66144;50.020;14.422;2023-05-20T12:14:09;12.00;;;8.43;;
77170;SDS011;66144;50.020;14.422;2023-05-20T12:16:35;12.52;;;8.40;;
77170;SDS011;66144;50.020;14.422;2023-05-20T12:19:01;11.40;;;8.02;;
77170;SDS011;66144;50.020;14.422;2023-05-20T12:21:27;12.45;;;8.57;;
77170;SDS011;66144;50.020;14.422;2023-05-20T12:23:53;10.50;;;7.93;;
77170;SDS011;66144;50.020;14.422;2023-05-20T12:26:22;11.07;;;8.73;;
77170;SDS011;66144;50.020;14.422;2023-05-20T12:28:51;12.68;;;9.45;;
77170;SDS011;66144;50.020;14.422;2023-05-20T12:31:17;11.55;;;9.23;;
77170;SDS011;66144;50.020;14.422;2023-05-20T12:33:43;10.80;;;8.95;;
77170;SDS011;66144;50.020;14.422;2023-05-20T12:36:08;12.10;;;9.07;;
77170;SDS011;66144;50.020;14.422;2023-05-20T12:38:34;10.10;;;8.65;;
77170;SDS011;66144;50.020;14.422;2023-05-20T12:41:00;10.50;;;8.38;;
77170;SDS011;66144;50.020;14.422;2023-05-20T12:43:26;11.70;;;8.57;;
77170;SDS011;66144;50.020;14.422;2023-05-20T12:45:51;12.05;;;8.77;;
77170;SDS011;66144;50.020;14.422;2023-05-20T12:48:17;12.18;;;9.32;;
77170;SDS011;66144;50.020;14.422;2023-05-20T12:50:42;10.65;;;8.13;;
77170;SDS011;66144;50.020;14.422;2023-05-20T12:53:08;11.80;;;8.82;;
77170;SDS011;66144;50.020;14.422;2023-05-20T12:55:33;10.30;;;8.25;;
77170;SDS011;66144;50.020;14.422;2023-05-20T12:57:58;11.68;;;8.60;;
77170;SDS011;66144;50.020;14.422;2023-05-20T13:00:24;9.55;;;7.75;;
77170;SDS011;66144;50.020;14.422;2023-05-20T13:02:49;10.82;;;8.35;;
77170;SDS011;66144;50.020;14.422;2023-05-20T13:05:16;11.30;;;8.63;;
77170;SDS011;66144;50.020;14.422;2023-05-20T13:07:41;13.52;;;8.85;;
77170;SDS011;66144;50.020;14.422;2023-05-20T13:10:07;10.32;;;8.60;;
77170;SDS011;66144;50.020;14.422;2023-05-20T13:12:34;12.27;;;8.73;;
77170;SDS011;66144;50.020;14.422;2023-05-20T13:15:00;10.48;;;8.20;;
77170;SDS011;66144;50.020;14.422;2023-05-20T13:17:25;11.15;;;7.95;;
77170;SDS011;66144;50.020;14.422;2023-05-20T13:19:51;11.30;;;8.27;;
77170;SDS011;66144;50.020;14.422;2023-05-20T13:22:16;10.90;;;8.50;;
77170;SDS011;66144;50.020;14.422;2023-05-20T13:24:42;11.93;;;8.05;;
77170;SDS011;66144;50.020;14.422;2023-05-20T13:27:07;9.90;;;8.30;;
77170;SDS011;66144;50.020;14.422;2023-05-20T13:29:33;10.77;;;8.38;;
77170;SDS011;66144;50.020;14.422;2023-05-20T13:31:58;10.10;;;7.55;;
77170;SDS011;66144;50.020;14.422;2023-05-20T13:34:24;10.27;;;8.13;;
77170;SDS011;66144;50.020;14.422;2023-05-20T13:36:49;9.32;;;7.72;;
77170;SDS011;66144;50.020;14.422;2023-05-20T13:39:15;10.77;;;7.68;;
77170;SDS011;66144;50.020;14.422;2023-05-20T13:41:41;9.55;;;7.93;;
77170;SDS011;66144;50.020;14.422;2023-05-20T13:44:06;10.10;;;7.57;;
77170;SDS011;66144;50.020;14.422;2023-05-20T13:46:32;9.48;;;7.32;;
77170;SDS011;66144;50.020;14.422;2023-05-20T13:48:57;10.30;;;7.57;;
77170;SDS011;66144;50.020;14.422;2023-05-20T13:51:23;10.20;;;8.20;;
77170;SDS011;66144;50.020;14.422;2023-05-20T13:53:48;10.13;;;7.28;;
77170;SDS011;66144;50.020;14.422;2023-05-20T13:56:13;9.10;;;7.60;;
77170;SDS011;66144;50.020;14.422;2023-05-20T13:58:39;12.88;;;7.80;;
77170;SDS011;66144;50.020;14.422;2023-05-20T14:01:05;9.65;;;7.07;;
77170;SDS011;66144;50.020;14.422;2023-05-20T14:03:31;11.45;;;7.70;;
77170;SDS011;66144;50.020;14.422;2023-05-20T14:06:01;12.35;;;8.20;;
77170;SDS011;66144;50.020;14.422;2023-05-20T14:08:26;11.85;;;7.30;;
77170;SDS011;66144;50.020;14.422;2023-05-20T14:10:52;10.25;;;7.57;;
77170;SDS011;66144;50.020;14.422;2023-05-20T14:13:22;10.73;;;7.38;;
77170;SDS011;66144;50.020;14.422;2023-05-20T14:15:47;16.08;;;8.05;;
77170;SDS011;66144;50.020;14.422;2023-05-20T14:18:14;10.02;;;7.95;;
77170;SDS011;66144;50.020;14.422;2023-05-20T14:20:43;10.52;;;7.50;;